Time;durP1;ratioP1;P1;durP2;ratioP2;P2;SDS_P1;SDS_P2;PMS_P1;PMS_P2;Temp;Humidity;BMP_temperature;BMP_pressure;BME280_temperature;BME280_humidity;BME280_pressure;Samples;Min_cycle;Max_cycle;Signal;HPM_P1;HPM_P2
2023/07/26 00:00:29;;;;;;;2.10;1.23;;;18.40;99.90;;;;;;5025977;28;20440;-33
2023/07/26 00:02:56;;;;;;;3.40;1.30;;;18.40;99.90;;;;;;5024274;28;20603;-33
2023/07/26 00:05:23;;;;;;;3.60;1.50;;;18.40;99.90;;;;;;5007552;28;20224;-33
2023/07/26 00:07:50;;;;;;;2.58;1.40;;;18.40;99.90;;;;;;5024224;28;20217;-32
2023/07/26 00:10:20;;;;;;;3.60;1.52;;;18.40;99.90;;;;;;5023635;28;20243;-33
2023/07/26 00:12:47;;;;;;;3.28;1.40;;;18.40;99.90;;;;;;5024884;28;20247;-33
2023/07/26 00:15:15;;;;;;;3.50;1.63;;;18.40;99.90;;;;;;5023646;28;20263;-33
2023/07/26 00:17:47;;;;;;;3.05;1.20;;;18.40;99.90;;;;;;5023516;28;20274;-33
2023/07/26 00:20:14;;;;;;;1.98;1.30;;;18.30;99.90;;;;;;5023497;28;20215;-32
2023/07/26 00:22:41;;;;;;;4.22;1.30;;;18.30;99.90;;;;;;5024409;28;20294;-25
2023/07/26 00:25:11;;;;;;;4.22;1.38;;;18.30;99.90;;;;;;5023649;28;20205;-32
2023/07/26 00:27:38;;;;;;;4.55;1.27;;;18.30;99.90;;;;;;5023216;28;20224;-33
2023/07/26 00:30:06;;;;;;;2.80;1.33;;;18.30;99.90;;;;;;5023417;28;20196;-33
2023/07/26 00:32:33;;;;;;;3.60;1.63;;;18.30;99.90;;;;;;5024787;28;20682;-33
2023/07/26 00:35:06;;;;;;;1.80;1.40;;;18.30;99.90;;;;;;5023504;28;20328;-33
2023/07/26 00:37:35;;;;;;;2.60;1.50;;;18.30;99.90;;;;;;5023003;28;20267;-32
2023/07/26 00:40:03;;;;;;;2.78;1.67;;;18.20;99.90;;;;;;4991076;28;20778;-32
2023/07/26 00:42:32;;;;;;;2.85;1.58;;;18.20;99.90;;;;;;5023291;28;20660;-33
2023/07/26 00:45:02;;;;;;;3.23;1.37;;;18.20;99.90;;;;;;5025160;28;20274;-33
2023/07/26 00:47:34;;;;;;;5.82;1.67;;;18.20;99.90;;;;;;5006886;28;20675;-33
2023/07/26 00:50:02;;;;;;;2.40;1.70;;;18.20;99.90;;;;;;5007283;28;20199;-32
2023/07/26 00:52:29;;;;;;;1.75;1.35;;;18.10;99.90;;;;;;5009280;28;20219;-33
2023/07/26 00:54:56;;;;;;;4.43;1.42;;;18.10;99.90;;;;;;5010556;28;20217;-32
2023/07/26 00:57:26;;;;;;;2.28;1.80;;;18.10;99.90;;;;;;5026839;28;20216;-33
2023/07/26 00:59:58;;;;;;;4.80;1.75;;;18.00;99.90;;;;;;5028958;28;20212;-32
2023/07/26 01:02:28;;;;;;;2.70;1.55;;;18.00;99.90;;;;;;5031492;28;20221;-33
2023/07/26 01:04:55;;;;;;;1.98;1.60;;;18.00;99.90;;;;;;5038227;28;20607;-33
2023/07/26 01:08:01;;;;;;;3.03;1.80;;;18.00;99.90;;;;;;5035638;28;20738;-32
2023/07/26 01:10:53;;;;;;;6.33;1.97;;;17.90;99.90;;;;;;5036240;28;20367;-33
2023/07/26 01:13:58;;;;;;;3.20;1.73;;;17.90;99.90;;;;;;5046864;28;20235;-33
2023/07/26 01:16:28;;;;;;;2.83;1.60;;;17.90;99.90;;;;;;5031391;28;20623;-33
2023/07/26 01:18:55;;;;;;;3.10;2.30;;;17.80;99.90;;;;;;5035649;28;20777;-33
2023/07/26 01:21:23;;;;;;;2.67;1.60;;;17.80;99.90;;;;;;5045037;28;20223;-33
2023/07/26 01:23:52;;;;;;;3.27;1.70;;;17.80;99.90;;;;;;5047446;28;20686;-33
2023/07/26 01:26:19;;;;;;;6.30;1.83;;;17.70;99.90;;;;;;5029716;28;20221;-33
2023/07/26 01:28:49;;;;;;;3.40;1.90;;;17.70;99.90;;;;;;5046050;28;20222;-33
2023/07/26 01:31:20;;;;;;;5.20;2.53;;;17.70;99.90;;;;;;5044835;28;20236;-33
2023/07/26 01:33:53;;;;;;;1.87;1.77;;;17.70;99.90;;;;;;5045107;28;20212;-33
2023/07/26 01:36:22;;;;;;;3.42;1.80;;;17.70;99.90;;;;;;5046881;28;20208;-33
2023/07/26 01:38:51;;;;;;;2.13;1.80;;;17.70;99.90;;;;;;5047640;28;20243;-33
2023/07/26 01:41:19;;;;;;;4.97;1.90;;;17.70;99.90;;;;;;5045726;28;20246;-33
2023/07/26 01:43:49;;;;;;;3.27;1.97;;;17.60;99.90;;;;;;5045745;28;20710;-33
2023/07/26 01:46:18;;;;;;;2.47;2.10;;;17.60;99.90;;;;;;5029334;28;20204;-33
2023/07/26 01:48:51;;;;;;;4.60;2.28;;;17.60;99.90;;;;;;5046300;28;20258;-33
2023/07/26 01:51:20;;;;;;;4.10;2.28;;;17.60;99.90;;;;;;5044911;28;20780;-33
2023/07/26 01:53:52;;;;;;;2.45;2.00;;;17.60;99.90;;;;;;5047351;28;20211;-33
2023/07/26 01:56:20;;;;;;;5.47;2.17;;;17.60;99.90;;;;;;5046696;28;20313;-33
2023/07/26 01:58:47;;;;;;;5.82;2.30;;;17.50;99.90;;;;;;5045473;28;20243;-33
2023/07/26 02:01:14;;;;;;;3.30;1.85;;;17.50;99.90;;;;;;5045246;28;20212;-33
2023/07/26 02:03:41;;;;;;;2.83;2.00;;;17.50;99.90;;;;;;5045270;28;20231;-33
2023/07/26 02:06:11;;;;;;;3.90;2.00;;;17.50;99.90;;;;;;5044807;28;20200;-33
2023/07/26 02:08:40;;;;;;;4.13;2.37;;;17.50;99.90;;;;;;5045427;28;20278;-33
2023/07/26 02:11:12;;;;;;;3.58;2.20;;;17.50;99.90;;;;;;5038203;28;20208;-33
2023/07/26 02:13:44;;;;;;;3.47;2.00;;;17.50;99.90;;;;;;5026823;28;20263;-33
2023/07/26 02:16:13;;;;;;;3.45;2.20;;;17.50;99.90;;;;;;5026003;28;20635;-33
2023/07/26 02:18:42;;;;;;;3.70;2.30;;;17.50;99.90;;;;;;5024959;28;20213;-32
2023/07/26 02:21:09;;;;;;;3.20;2.47;;;17.40;99.90;;;;;;5024463;28;20205;-33
2023/07/26 02:23:39;;;;;;;2.63;2.30;;;17.40;99.90;;;;;;5026068;28;20741;-33
2023/07/26 02:26:08;;;;;;;6.10;2.60;;;17.40;99.90;;;;;;5009095;28;20209;-33
2023/07/26 02:28:38;;;;;;;3.22;2.30;;;17.40;99.90;;;;;;5026922;28;20629;-33
2023/07/26 02:31:05;;;;;;;3.67;2.20;;;17.40;99.90;;;;;;5024831;28;20215;-33
2023/07/26 02:33:33;;;;;;;5.28;2.50;;;17.40;99.90;;;;;;5026560;28;20200;-33
2023/07/26 02:36:00;;;;;;;3.05;2.17;;;17.40;99.90;;;;;;5025535;28;20208;-33
2023/07/26 02:38:28;;;;;;;3.50;2.38;;;17.40;99.90;;;;;;5024962;28;20252;-33
2023/07/26 02:40:55;;;;;;;4.72;2.63;;;17.40;99.90;;;;;;5026009;28;20239;-33
2023/07/26 02:43:24;;;;;;;3.20;2.42;;;17.40;99.90;;;;;;5026537;28;20228;-33
2023/07/26 02:46:11;;;;;;;3.28;2.35;;;17.40;99.90;;;;;;5025995;28;20213;-33
2023/07/26 02:48:38;;;;;;;3.50;2.20;;;17.40;99.90;;;;;;5024737;28;20594;-33
2023/07/26 02:51:05;;;;;;;4.03;2.27;;;17.40;99.90;;;;;;5023769;28;20204;-33
2023/07/26 02:53:32;;;;;;;3.80;2.20;;;17.40;99.90;;;;;;5024539;28;20200;-33
2023/07/26 02:56:02;;;;;;;3.78;2.60;;;17.40;99.90;;;;;;5026152;28;20220;-32
2023/07/26 02:58:30;;;;;;;3.70;2.90;;;17.40;99.90;;;;;;5024922;28;20251;-33
2023/07/26 03:00:57;;;;;;;4.03;2.55;;;17.30;99.90;;;;;;5025987;28;20213;-33
2023/07/26 03:03:26;;;;;;;3.83;2.60;;;17.30;99.90;;;;;;5024351;28;20652;-33
2023/07/26 03:05:59;;;;;;;3.55;2.17;;;17.30;99.90;;;;;;5025977;28;20211;-33
2023/07/26 03:08:29;;;;;;;4.90;2.70;;;17.30;99.90;;;;;;5024405;28;20200;-33
2023/07/26 03:10:56;;;;;;;4.07;2.70;;;17.30;99.90;;;;;;5024024;28;20229;-33
2023/07/26 03:13:23;;;;;;;3.83;2.30;;;17.30;99.90;;;;;;5023671;28;20494;-33
2023/07/26 03:15:52;;;;;;;4.13;2.40;;;17.30;99.90;;;;;;5007668;28;20201;-33
2023/07/26 03:18:22;;;;;;;4.85;2.72;;;17.30;99.90;;;;;;5025640;28;20211;-33
2023/07/26 03:20:51;;;;;;;4.10;3.00;;;17.30;99.90;;;;;;5026105;28;20274;-33
2023/07/26 03:23:18;;;;;;;3.22;2.92;;;17.30;99.90;;;;;;5023043;28;20217;-33
2023/07/26 03:25:46;;;;;;;4.80;3.25;;;17.30;99.90;;;;;;5007613;28;20197;-33
2023/07/26 03:28:13;;;;;;;2.90;2.60;;;17.30;99.90;;;;;;5023787;28;20196;-33
2023/07/26 03:30:43;;;;;;;3.17;2.67;;;17.30;99.90;;;;;;5025431;28;20584;-33
2023/07/26 03:33:12;;;;;;;4.43;2.72;;;17.30;99.90;;;;;;5023666;28;20211;-33
2023/07/26 03:35:44;;;;;;;3.70;2.80;;;17.20;99.90;;;;;;5024261;28;20205;-32
2023/07/26 03:38:14;;;;;;;5.28;3.05;;;17.20;99.90;;;;;;4990713;28;20239;-32
2023/07/26 03:40:41;;;;;;;3.47;2.90;;;17.20;99.90;;;;;;5023900;28;20232;-33
2023/07/26 03:43:09;;;;;;;5.50;2.78;;;17.20;99.90;;;;;;5023755;28;20228;-33
2023/07/26 03:45:39;;;;;;;3.17;2.70;;;17.20;99.90;;;;;;5023796;28;20493;-32
2023/07/26 03:48:06;;;;;;;4.10;2.80;;;17.20;99.90;;;;;;5023715;28;20205;-32
2023/07/26 03:50:33;;;;;;;5.50;3.17;;;17.10;99.90;;;;;;5025145;28;20200;-32
2023/07/26 03:53:02;;;;;;;4.53;3.13;;;17.10;99.90;;;;;;5023217;28;20286;-33
2023/07/26 03:55:32;;;;;;;5.05;2.65;;;17.10;99.90;;;;;;5023946;28;20220;-32
2023/07/26 03:58:01;;;;;;;6.95;3.05;;;17.10;99.90;;;;;;5025093;28;20573;-33
2023/07/26 04:00:30;;;;;;;6.13;2.70;;;17.10;99.90;;;;;;5025047;28;20193;-33
2023/07/26 04:03:02;;;;;;;4.78;3.15;;;17.10;99.90;;;;;;5024854;28;20690;-33
2023/07/26 04:05:31;;;;;;;4.50;3.30;;;17.10;99.90;;;;;;5023617;28;20588;-32
2023/07/26 04:08:03;;;;;;;4.57;3.30;;;17.10;99.90;;;;;;5022762;28;20582;-33
2023/07/26 04:10:33;;;;;;;4.25;3.10;;;17.10;99.90;;;;;;5023715;28;20744;-33
2023/07/26 04:13:00;;;;;;;7.80;3.20;;;17.10;99.90;;;;;;5007593;28;20201;-32
2023/07/26 04:15:29;;;;;;;5.28;3.50;;;17.10;99.90;;;;;;5024838;28;20744;-33
2023/07/26 04:17:56;;;;;;;5.20;3.20;;;17.10;99.90;;;;;;5024642;28;20222;-33
2023/07/26 04:20:26;;;;;;;5.05;3.53;;;17.10;99.90;;;;;;5023448;28;20244;-33
2023/07/26 04:22:53;;;;;;;7.00;3.50;;;17.10;99.90;;;;;;5028733;28;20228;-33
2023/07/26 04:25:23;;;;;;;4.95;2.88;;;17.10;99.90;;;;;;5027004;28;20725;-33
2023/07/26 04:27:52;;;;;;;6.35;3.38;;;17.10;99.90;;;;;;5030166;28;20211;-33
2023/07/26 04:30:22;;;;;;;6.65;3.60;;;17.20;99.90;;;;;;5038275;28;20342;-33
2023/07/26 04:32:49;;;;;;;7.28;3.95;;;17.10;99.90;;;;;;5048946;28;20213;-33
2023/07/26 04:35:18;;;;;;;8.63;3.72;;;17.10;99.90;;;;;;5047082;28;20205;-32
2023/07/26 04:37:46;;;;;;;5.22;3.38;;;17.10;99.90;;;;;;5026543;28;20255;-33
2023/07/26 04:40:13;;;;;;;6.32;3.00;;;17.10;99.90;;;;;;5023115;28;20277;-33
2023/07/26 04:42:42;;;;;;;7.60;3.22;;;17.20;99.90;;;;;;5028228;28;20244;-33
2023/07/26 04:45:12;;;;;;;8.27;3.45;;;17.20;99.90;;;;;;5045380;28;20218;-32
2023/07/26 04:47:39;;;;;;;4.68;3.10;;;17.20;99.90;;;;;;5047483;28;20253;-32
2023/07/26 04:50:12;;;;;;;6.25;3.20;;;17.20;99.90;;;;;;5047272;28;20262;-33
2023/07/26 04:52:39;;;;;;;4.45;3.03;;;17.30;99.90;;;;;;5030389;28;20200;-24
2023/07/26 04:55:09;;;;;;;4.43;3.65;;;17.30;99.90;;;;;;5046772;28;20207;-24
2023/07/26 04:57:38;;;;;;;5.40;3.70;;;17.30;99.90;;;;;;5041811;28;20269;-25
2023/07/26 05:00:07;;;;;;;7.32;3.90;;;17.30;99.90;;;;;;5031798;28;20208;-24
2023/07/26 05:02:39;;;;;;;6.30;3.88;;;17.30;99.90;;;;;;5028235;28;20274;-25
2023/07/26 05:05:07;;;;;;;7.05;4.03;;;17.40;99.90;;;;;;5015785;28;20204;-24
2023/07/26 05:07:34;;;;;;;7.40;3.92;;;17.40;99.90;;;;;;5022513;28;20655;-24
2023/07/26 05:10:02;;;;;;;6.23;3.63;;;17.40;99.90;;;;;;5024240;28;20201;-24
2023/07/26 05:12:29;;;;;;;9.23;3.83;;;17.40;99.90;;;;;;5034274;28;20292;-25
2023/07/26 05:14:56;;;;;;;8.07;3.70;;;17.40;99.90;;;;;;5031581;28;20216;-24
2023/07/26 05:17:29;;;;;;;6.35;3.63;;;17.50;99.90;;;;;;5032303;28;20698;-24
2023/07/26 05:20:01;;;;;;;7.93;3.67;;;17.50;99.90;;;;;;5045026;28;20279;-25
2023/07/26 05:22:30;;;;;;;5.95;3.50;;;17.60;99.90;;;;;;5047018;28;20227;-24
2023/07/26 05:25:02;;;;;;;7.72;3.88;;;17.60;99.90;;;;;;5046495;28;20246;-24
2023/07/26 05:27:30;;;;;;;8.43;3.97;;;17.70;99.90;;;;;;5045844;28;20258;-24
2023/07/26 05:29:57;;;;;;;10.25;4.10;;;17.70;99.90;;;;;;5046206;28;20216;-24
2023/07/26 05:32:27;;;;;;;8.95;4.07;;;17.70;99.90;;;;;;5047780;28;20215;-24
2023/07/26 05:35:00;;;;;;;9.15;3.92;;;17.80;99.90;;;;;;5029791;28;20192;-24
2023/07/26 05:37:29;;;;;;;8.20;3.92;;;17.80;99.90;;;;;;5028683;28;20204;-24
2023/07/26 05:39:56;;;;;;;7.00;3.97;;;17.80;99.90;;;;;;5047102;28;20293;-24
2023/07/26 05:42:26;;;;;;;7.60;4.00;;;17.90;99.90;;;;;;5044301;28;20200;-24
2023/07/26 05:44:58;;;;;;;7.65;4.18;;;17.90;99.90;;;;;;5047089;28;20224;-24
2023/07/26 05:47:30;;;;;;;10.07;4.20;;;17.90;99.90;;;;;;5045298;28;20212;-24
2023/07/26 05:49:57;;;;;;;8.77;4.20;;;17.90;99.90;;;;;;5041694;28;20291;-24
2023/07/26 05:52:25;;;;;;;8.00;4.75;;;18.00;99.90;;;;;;5026074;28;20266;-24
2023/07/26 05:54:52;;;;;;;7.18;4.15;;;18.00;99.90;;;;;;5025889;28;20314;-24
2023/07/26 05:57:21;;;;;;;10.15;4.20;;;18.00;99.90;;;;;;5025194;28;20212;-24
2023/07/26 05:59:49;;;;;;;7.45;3.85;;;18.10;99.90;;;;;;5029772;28;20212;-24
2023/07/26 06:02:18;;;;;;;11.07;4.10;;;18.10;99.90;;;;;;5027742;28;20623;-24
2023/07/26 06:04:47;;;;;;;8.77;4.50;;;18.10;99.90;;;;;;5027955;28;20395;-24
2023/07/26 06:07:16;;;;;;;9.00;4.20;;;18.20;99.90;;;;;;5024516;28;20217;-24
2023/07/26 06:09:43;;;;;;;8.38;4.32;;;18.20;99.90;;;;;;5025228;28;20569;-25
2023/07/26 06:12:11;;;;;;;11.00;4.72;;;18.20;99.90;;;;;;5009165;28;20590;-24
2023/07/26 06:14:41;;;;;;;8.70;4.35;;;18.30;99.90;;;;;;5029825;28;20224;-24
2023/07/26 06:17:08;;;;;;;7.05;3.85;;;18.30;99.90;;;;;;5022779;28;20205;-24
2023/07/26 06:19:37;;;;;;;5.47;3.72;;;18.30;99.90;;;;;;5038932;28;20212;-24
2023/07/26 06:22:05;;;;;;;11.70;4.00;;;18.40;99.90;;;;;;5022854;28;20229;-24
2023/07/26 06:24:32;;;;;;;8.13;4.07;;;18.50;99.90;;;;;;5014033;28;20805;-24
2023/07/26 06:27:04;;;;;;;10.07;4.50;;;18.60;99.90;;;;;;5024701;28;20237;-24
2023/07/26 06:29:33;;;;;;;8.80;4.60;;;18.60;99.90;;;;;;5025605;28;20694;-24
2023/07/26 06:32:00;;;;;;;9.88;4.30;;;18.70;99.90;;;;;;5026323;28;20208;-24
2023/07/26 06:34:27;;;;;;;7.55;3.95;;;18.70;99.90;;;;;;5026127;28;20201;-24
2023/07/26 06:36:55;;;;;;;8.10;4.00;;;18.80;99.90;;;;;;5039785;28;20290;-24
2023/07/26 06:39:27;;;;;;;7.05;4.18;;;18.90;99.90;;;;;;5042523;28;20603;-24
2023/07/26 06:41:54;;;;;;;5.38;4.13;;;18.90;99.90;;;;;;5042692;28;20453;-24
2023/07/26 06:44:28;;;;;;;5.85;3.90;;;18.90;99.90;;;;;;5032930;28;20294;-25
2023/07/26 06:47:02;;;;;;;8.45;4.00;;;19.00;99.90;;;;;;5034651;28;20205;-25
2023/07/26 06:49:29;;;;;;;5.93;3.97;;;19.00;99.90;;;;;;5025246;28;20213;-25
2023/07/26 06:51:56;;;;;;;9.57;3.95;;;19.00;99.90;;;;;;5038646;28;20211;-24
2023/07/26 06:54:23;;;;;;;9.50;4.78;;;19.10;99.90;;;;;;5030532;28;20207;-25
2023/07/26 06:56:51;;;;;;;7.47;4.43;;;19.10;99.90;;;;;;5030941;28;20229;-32
2023/07/26 06:59:20;;;;;;;7.38;4.53;;;19.10;99.90;;;;;;5040132;28;20679;-33
2023/07/26 07:01:48;;;;;;;8.15;4.43;;;19.10;99.90;;;;;;5025327;28;20201;-32
2023/07/26 07:04:19;;;;;;;7.80;4.45;;;19.10;99.90;;;;;;5036466;28;20220;-33
2023/07/26 07:06:49;;;;;;;6.75;4.60;;;19.10;99.90;;;;;;5034676;28;20207;-33
2023/07/26 07:09:17;;;;;;;8.07;4.47;;;19.10;99.90;;;;;;5034943;28;20231;-33
2023/07/26 07:11:44;;;;;;;6.63;4.25;;;19.20;99.90;;;;;;5043419;28;20657;-33
2023/07/26 07:14:14;;;;;;;7.60;4.50;;;19.20;99.90;;;;;;5046267;28;20235;-33
2023/07/26 07:16:41;;;;;;;8.20;4.20;;;19.20;99.90;;;;;;5045076;28;20690;-33
2023/07/26 07:19:09;;;;;;;9.45;4.10;;;19.20;99.90;;;;;;5032215;28;20197;-33
2023/07/26 07:21:36;;;;;;;7.95;4.53;;;19.20;99.90;;;;;;5024162;28;20308;-33
2023/07/26 07:24:07;;;;;;;9.13;4.35;;;19.30;99.90;;;;;;5028841;28;20464;-33
2023/07/26 07:26:39;;;;;;;8.75;4.32;;;19.30;99.90;;;;;;5026372;28;20255;-33
2023/07/26 07:29:06;;;;;;;6.20;4.20;;;19.40;99.90;;;;;;5024999;28;20201;-33
2023/07/26 07:31:37;;;;;;;7.13;3.95;;;19.50;99.90;;;;;;5022803;28;20212;-33
2023/07/26 07:34:07;;;;;;;7.60;4.15;;;19.50;99.90;;;;;;5025818;28;20452;-33
2023/07/26 07:36:34;;;;;;;10.43;3.92;;;19.60;99.90;;;;;;5037147;28;20197;-33
2023/07/26 07:39:01;;;;;;;8.80;4.28;;;19.60;99.90;;;;;;5022895;28;20610;-33
2023/07/26 07:41:29;;;;;;;7.72;3.42;;;19.70;99.90;;;;;;5034576;28;20763;-33
2023/07/26 07:43:56;;;;;;;8.40;3.53;;;19.70;99.90;;;;;;5043016;28;20223;-33
2023/07/26 07:46:28;;;;;;;7.18;3.78;;;19.80;99.90;;;;;;5039534;28;20216;-33
2023/07/26 07:48:59;;;;;;;5.93;3.40;;;19.70;99.90;;;;;;5030387;28;20227;-33
2023/07/26 07:51:29;;;;;;;5.35;3.22;;;19.80;99.90;;;;;;5034413;28;20239;-33
2023/07/26 07:53:58;;;;;;;4.80;3.20;;;19.70;99.90;;;;;;5030527;28;20204;-24
2023/07/26 07:56:30;;;;;;;5.22;3.40;;;19.80;99.90;;;;;;5038114;28;20585;-24
2023/07/26 07:59:00;;;;;;;5.63;3.58;;;19.80;99.90;;;;;;5026824;28;20998;-25
2023/07/26 08:01:30;;;;;;;5.45;3.22;;;19.80;99.90;;;;;;5034567;28;20585;-24
2023/07/26 08:04:02;;;;;;;5.45;3.38;;;19.90;99.90;;;;;;5034717;28;20223;-24
2023/07/26 08:06:29;;;;;;;4.75;3.45;;;19.90;99.90;;;;;;5036651;28;21768;-24
2023/07/26 08:08:57;;;;;;;4.35;3.22;;;19.90;99.90;;;;;;5027097;28;20664;-24
2023/07/26 08:11:26;;;;;;;4.70;3.45;;;19.90;99.90;;;;;;5046990;28;20642;-24
2023/07/26 08:13:54;;;;;;;7.75;3.35;;;19.90;99.90;;;;;;5048589;28;20208;-24
2023/07/26 08:16:24;;;;;;;5.25;3.17;;;19.90;99.90;;;;;;5049532;28;20597;-24
2023/07/26 08:18:54;;;;;;;4.82;3.25;;;19.90;99.90;;;;;;5044909;28;20305;-24
2023/07/26 08:21:23;;;;;;;4.07;3.10;;;19.90;99.90;;;;;;5046876;28;20616;-24
2023/07/26 08:23:51;;;;;;;7.43;3.00;;;19.90;99.90;;;;;;5038183;28;20666;-24
2023/07/26 08:26:21;;;;;;;3.75;3.20;;;19.90;99.90;;;;;;5046039;28;20222;-24
2023/07/26 08:28:51;;;;;;;6.15;3.35;;;19.90;99.90;;;;;;5029834;28;20200;-24
2023/07/26 08:31:20;;;;;;;6.05;3.35;;;19.90;99.90;;;;;;5028631;28;20718;-24
2023/07/26 08:33:50;;;;;;;4.85;3.00;;;20.00;99.90;;;;;;5028191;28;20308;-24
2023/07/26 08:36:18;;;;;;;4.93;2.70;;;20.00;99.90;;;;;;5027805;28;20593;-24
2023/07/26 08:38:47;;;;;;;3.40;3.10;;;20.00;99.90;;;;;;5047032;28;20264;-24
2023/07/26 08:41:14;;;;;;;3.55;3.00;;;20.00;99.90;;;;;;5030594;28;20766;-24
2023/07/26 08:43:44;;;;;;;4.55;2.92;;;20.00;99.90;;;;;;5031239;28;20232;-25
2023/07/26 08:46:15;;;;;;;3.65;2.83;;;20.00;99.90;;;;;;5030590;28;20209;-24
2023/07/26 08:48:48;;;;;;;4.38;3.10;;;20.00;99.90;;;;;;5039534;28;20205;-24
2023/07/26 08:51:16;;;;;;;5.00;2.95;;;20.00;99.90;;;;;;5042934;28;20196;-24
2023/07/26 08:53:44;;;;;;;4.53;2.75;;;20.00;99.90;;;;;;5046876;28;20839;-24
2023/07/26 08:56:13;;;;;;;3.75;2.50;;;20.10;99.90;;;;;;5047549;28;20204;-24
2023/07/26 08:58:40;;;;;;;3.90;3.15;;;20.10;99.90;;;;;;5042751;28;20672;-24
2023/07/26 09:01:13;;;;;;;4.47;2.78;;;20.10;99.90;;;;;;5034020;28;20211;-33
2023/07/26 09:03:41;;;;;;;4.65;2.70;;;20.20;99.90;;;;;;5047646;28;20228;-33
2023/07/26 09:06:09;;;;;;;4.10;2.97;;;20.20;99.90;;;;;;5039054;28;20216;-33
2023/07/26 09:08:42;;;;;;;3.55;2.83;;;20.20;99.90;;;;;;5037220;28;20207;-33
2023/07/26 09:11:48;;;;;;;4.30;2.53;;;20.20;99.90;;;;;;5043091;28;20219;-33
2023/07/26 09:14:15;;;;;;;3.50;2.90;;;20.20;99.90;;;;;;5024454;28;20221;-33
2023/07/26 09:16:46;;;;;;;4.25;2.88;;;20.20;99.90;;;;;;5031497;28;20200;-33
2023/07/26 09:19:15;;;;;;;4.07;2.72;;;20.30;99.90;;;;;;5041992;28;20213;-33
2023/07/26 09:21:45;;;;;;;4.32;2.90;;;20.30;99.90;;;;;;5033719;28;20287;-25
2023/07/26 09:24:12;;;;;;;3.78;2.47;;;20.30;99.90;;;;;;5028146;28;20228;-24
2023/07/26 09:26:41;;;;;;;4.97;2.70;;;20.30;99.90;;;;;;5035750;28;20852;-24
2023/07/26 09:29:13;;;;;;;4.63;3.03;;;20.40;99.90;;;;;;5029070;28;20714;-24
2023/07/26 09:31:43;;;;;;;4.53;2.78;;;20.40;99.90;;;;;;5035240;28;20219;-24
2023/07/26 09:34:18;;;;;;;5.30;3.10;;;20.40;99.90;;;;;;5038814;28;20212;-25
2023/07/26 09:36:51;;;;;;;5.70;3.22;;;20.40;99.90;;;;;;5032310;28;20579;-25
2023/07/26 09:39:24;;;;;;;5.03;3.00;;;20.30;99.90;;;;;;5044745;28;20228;-25
2023/07/26 09:42:05;;;;;;;4.88;3.60;;;20.30;99.90;;;;;;5040694;28;20222;-33
2023/07/26 09:44:33;;;;;;;4.78;3.08;;;20.30;99.90;;;;;;5037634;28;20244;-33
2023/07/26 09:47:01;;;;;;;3.60;2.92;;;20.30;99.90;;;;;;5027235;28;20204;-33
2023/07/26 09:49:33;;;;;;;4.13;2.95;;;20.30;99.90;;;;;;5025713;28;20199;-33
2023/07/26 09:52:12;;;;;;;6.25;3.45;;;20.30;99.90;;;;;;5029397;28;20291;-33
2023/07/26 09:54:44;;;;;;;3.17;2.88;;;20.40;99.90;;;;;;5032045;28;20569;-33
2023/07/26 09:57:15;;;;;;;3.97;2.65;;;20.40;99.90;;;;;;5042386;28;20196;-33
2023/07/26 09:59:47;;;;;;;4.25;3.10;;;20.40;99.90;;;;;;5033551;28;20237;-34
2023/07/26 10:02:16;;;;;;;4.40;3.10;;;20.50;99.90;;;;;;5034505;28;20741;-33
2023/07/26 10:04:54;;;;;;;4.55;2.90;;;20.50;99.90;;;;;;5039216;28;20629;-33
2023/07/26 10:07:26;;;;;;;5.03;2.80;;;20.50;99.90;;;;;;5045469;28;20198;-33
2023/07/26 10:09:54;;;;;;;5.05;2.97;;;20.50;99.90;;;;;;5044621;28;20235;-34
2023/07/26 10:12:25;;;;;;;5.03;2.97;;;20.50;99.90;;;;;;5036107;28;20220;-33
2023/07/26 10:14:56;;;;;;;3.28;2.53;;;20.60;99.90;;;;;;5035507;28;20219;-35
2023/07/26 10:17:29;;;;;;;3.72;3.05;;;20.60;99.90;;;;;;5040791;28;20291;-33
2023/07/26 10:19:59;;;;;;;3.40;2.85;;;20.60;99.90;;;;;;5029225;28;20240;-33
2023/07/26 10:22:27;;;;;;;4.10;2.80;;;20.60;99.90;;;;;;5026534;28;20572;-33
2023/07/26 10:24:54;;;;;;;4.40;3.10;;;20.60;99.90;;;;;;5029658;28;20240;-34
2023/07/26 10:27:23;;;;;;;4.35;2.97;;;20.60;99.90;;;;;;5031081;28;20291;-34
2023/07/26 10:29:52;;;;;;;4.32;2.88;;;20.70;99.90;;;;;;5033692;28;20270;-34
2023/07/26 10:32:19;;;;;;;3.50;3.00;;;20.70;99.90;;;;;;5041813;28;20213;-34
2023/07/26 10:34:57;;;;;;;4.22;2.95;;;20.70;99.90;;;;;;5035586;28;20761;-34
2023/07/26 10:37:34;;;;;;;3.15;2.67;;;20.80;99.90;;;;;;5026056;28;20208;-34
2023/07/26 10:40:33;;;;;;;3.40;2.97;;;20.80;99.90;;;;;;5038211;28;20329;-34
2023/07/26 10:43:21;;;;;;;4.43;3.00;;;20.80;99.90;;;;;;5025315;28;20204;-34
2023/07/26 10:45:51;;;;;;;5.10;2.97;;;20.90;99.90;;;;;;5038576;28;20232;-34
2023/07/26 10:48:23;;;;;;;3.65;2.63;;;20.90;99.90;;;;;;5046674;28;20271;-34
2023/07/26 10:50:50;;;;;;;3.08;2.53;;;20.90;99.90;;;;;;5040684;28;20205;-34
2023/07/26 10:53:30;;;;;;;3.25;2.78;;;21.00;99.90;;;;;;5028758;28;20454;-34
2023/07/26 10:56:30;;;;;;;4.32;3.10;;;21.00;99.90;;;;;;5036255;28;20271;-34
2023/07/26 10:59:04;;;;;;;3.42;2.60;;;21.10;99.90;;;;;;5029710;28;20212;-34
2023/07/26 11:01:44;;;;;;;4.45;2.97;;;21.10;99.90;;;;;;5041600;28;20196;-34
2023/07/26 11:04:13;;;;;;;5.03;3.10;;;21.10;99.90;;;;;;5043722;28;20338;-32
2023/07/26 11:07:01;;;;;;;5.63;3.15;;;21.10;99.90;;;;;;5021864;28;20197;-34
2023/07/26 11:09:33;;;;;;;3.33;2.70;;;21.10;99.90;;;;;;5030120;28;20598;-33
2023/07/26 11:12:23;;;;;;;3.90;2.83;;;21.10;99.90;;;;;;5041828;28;20730;-33
2023/07/26 11:14:50;;;;;;;3.60;3.00;;;21.10;99.90;;;;;;5029908;28;20298;-33
2023/07/26 11:17:45;;;;;;;5.00;3.28;;;21.10;99.90;;;;;;5025342;28;20204;-33
2023/07/26 11:20:15;;;;;;;3.30;2.70;;;21.00;99.90;;;;;;5024816;28;20252;-33
2023/07/26 11:22:42;;;;;;;4.60;2.80;;;21.00;99.90;;;;;;5039774;28;20219;-33
2023/07/26 11:25:13;;;;;;;4.78;3.10;;;21.00;99.90;;;;;;5023566;28;20229;-33
2023/07/26 11:27:40;;;;;;;5.80;2.78;;;21.00;99.90;;;;;;5045923;28;20294;-33
2023/07/26 11:30:18;;;;;;;4.85;3.35;;;21.00;99.90;;;;;;5044350;28;20215;-33
2023/07/26 11:32:48;;;;;;;3.95;2.97;;;21.00;99.90;;;;;;5042865;28;20666;-33
2023/07/26 11:35:19;;;;;;;3.97;2.60;;;21.00;99.90;;;;;;5042811;28;20235;-33
2023/07/26 11:37:53;;;;;;;3.22;2.50;;;21.10;99.90;;;;;;5023368;28;20227;-34
2023/07/26 11:40:25;;;;;;;3.63;2.60;;;21.00;99.90;;;;;;5029341;28;20211;-33
2023/07/26 11:42:53;;;;;;;4.88;2.88;;;21.00;99.90;;;;;;5043654;28;20211;-33
2023/07/26 11:45:20;;;;;;;3.92;3.00;;;21.10;99.90;;;;;;5043064;28;20216;-33
2023/07/26 11:47:55;;;;;;;5.13;2.70;;;21.10;99.90;;;;;;5038151;28;20208;-33
2023/07/26 11:50:23;;;;;;;5.10;2.80;;;21.10;99.90;;;;;;5032410;28;20630;-34
2023/07/26 11:53:05;;;;;;;4.00;2.60;;;21.10;99.90;;;;;;5032647;28;20205;-34
2023/07/26 11:55:34;;;;;;;2.97;2.55;;;21.20;99.90;;;;;;5038589;28;20200;-33
2023/07/26 11:58:07;;;;;;;3.60;2.53;;;21.20;99.90;;;;;;5034096;28;20233;-33
2023/07/26 12:00:38;;;;;;;4.57;3.25;;;21.30;99.90;;;;;;5028102;28;20805;-33
2023/07/26 12:03:10;;;;;;;4.68;2.83;;;21.40;99.90;;;;;;5042412;28;20216;-34
2023/07/26 12:05:44;;;;;;;4.00;2.67;;;21.40;99.90;;;;;;5045956;28;20591;-33
2023/07/26 12:08:12;;;;;;;3.63;3.08;;;21.50;99.90;;;;;;5024098;28;20216;-34
2023/07/26 12:10:41;;;;;;;3.45;2.60;;;21.50;99.90;;;;;;5041212;28;20250;-32
2023/07/26 12:13:23;;;;;;;4.18;2.53;;;21.60;99.90;;;;;;5039321;28;20220;-33
2023/07/26 12:16:02;;;;;;;4.72;3.20;;;21.60;99.90;;;;;;5041919;28;20334;-33
2023/07/26 12:18:30;;;;;;;4.10;3.00;;;21.60;99.90;;;;;;5042652;28;20220;-33
2023/07/26 12:21:07;;;;;;;3.13;2.80;;;21.60;99.90;;;;;;5040244;28;20212;-33
2023/07/26 12:23:53;;;;;;;3.25;2.95;;;21.60;99.90;;;;;;5037655;28;20201;-33
2023/07/26 12:26:26;;;;;;;3.90;2.90;;;21.60;99.90;;;;;;5033802;28;20239;-33
2023/07/26 12:28:54;;;;;;;4.82;2.65;;;21.70;99.90;;;;;;5037085;28;20240;-33
2023/07/26 12:31:32;;;;;;;3.90;2.83;;;21.70;99.90;;;;;;5043982;28;20553;-33
2023/07/26 12:34:00;;;;;;;3.38;2.60;;;21.70;99.90;;;;;;5029881;28;20205;-33
2023/07/26 12:36:46;;;;;;;3.25;2.90;;;21.70;99.90;;;;;;5026759;28;20209;-33
2023/07/26 12:39:17;;;;;;;5.05;2.80;;;21.80;99.90;;;;;;5037804;28;20243;-33
2023/07/26 12:41:47;;;;;;;4.00;3.08;;;21.80;99.90;;;;;;5041836;28;20208;-34
2023/07/26 12:44:16;;;;;;;5.38;3.25;;;21.80;99.90;;;;;;5018367;28;20587;-34
2023/07/26 12:46:48;;;;;;;4.10;2.58;;;21.80;99.90;;;;;;5028280;28;20616;-34
2023/07/26 12:49:20;;;;;;;3.65;3.08;;;21.90;99.90;;;;;;5031741;28;20261;-34
2023/07/26 12:51:48;;;;;;;5.47;3.47;;;21.90;99.90;;;;;;5039061;28;20196;-34
2023/07/26 12:54:16;;;;;;;3.97;3.10;;;21.90;99.90;;;;;;5034938;28;20579;-33
2023/07/26 12:56:48;;;;;;;4.10;3.22;;;21.90;99.90;;;;;;5032189;28;20212;-33
2023/07/26 12:59:16;;;;;;;3.45;2.72;;;21.90;99.90;;;;;;5035405;28;20219;-34
2023/07/26 13:01:45;;;;;;;3.53;3.10;;;22.00;99.90;;;;;;5047950;28;20204;-34